createdAt,value
2018-09-10T00:00:14.870Z,4.75
2018-09-10T00:02:43.184Z,4.50
2018-09-10T00:05:11.434Z,3.40
2018-09-10T00:07:39.689Z,6.33
2018-09-10T00:10:07.996Z,5.75
2018-09-10T00:12:36.220Z,6.17
2018-09-10T00:15:04.526Z,5.90
2018-09-10T00:17:32.812Z,5.78
2018-09-10T00:20:01.053Z,9.90
2018-09-10T00:22:29.292Z,5.17
2018-09-10T00:24:57.571Z,5.10
2018-09-10T00:27:25.836Z,6.37
2018-09-10T00:29:54.064Z,4.25
2018-09-10T00:32:22.373Z,5.50
2018-09-10T00:34:50.728Z,11.80
2018-09-10T00:37:19.085Z,10.60
2018-09-10T00:39:47.435Z,9.23
2018-09-10T00:42:15.667Z,6.78
2018-09-10T00:44:43.972Z,4.25
2018-09-10T00:47:12.221Z,5.33
2018-09-10T00:49:40.513Z,6.85
2018-09-10T00:52:08.762Z,2.80
2018-09-10T00:54:37.068Z,5.75
2018-09-10T00:57:05.313Z,5.90
2018-09-10T00:59:33.587Z,11.68
2018-09-10T01:02:01.849Z,5.37
2018-09-10T01:04:30.141Z,5.67
2018-09-10T01:06:58.450Z,4.40
2018-09-10T01:09:26.873Z,5.22
2018-09-10T01:11:55.273Z,3.80
2018-09-10T01:14:23.565Z,6.58
2018-09-10T01:16:51.810Z,4.90
2018-09-10T01:19:20.054Z,4.78
2018-09-10T01:21:48.329Z,5.67
2018-09-10T01:24:16.604Z,7.00
2018-09-10T01:26:44.834Z,3.87
2018-09-10T01:29:13.076Z,3.52
2018-09-10T01:31:41.326Z,3.00
2018-09-10T01:34:15.004Z,3.20
2018-09-10T01:36:43.244Z,6.12
2018-09-10T01:39:11.501Z,3.40
2018-09-10T01:41:39.822Z,4.55
2018-09-10T01:44:08.165Z,6.08
2018-09-10T01:46:36.427Z,8.55
2018-09-10T01:49:04.700Z,4.53
2018-09-10T01:51:33.019Z,5.62
2018-09-10T01:54:01.910Z,3.98
2018-09-10T01:56:30.221Z,8.60
2018-09-10T01:58:58.562Z,4.05
2018-09-10T02:01:26.793Z,5.42
2018-09-10T02:03:55.085Z,7.70
2018-09-10T02:06:23.350Z,4.20
2018-09-10T02:08:51.628Z,4.70
2018-09-10T02:11:20.915Z,3.70
2018-09-10T02:13:49.202Z,6.55
2018-09-10T02:16:17.826Z,3.55
2018-09-10T02:18:46.940Z,4.87
2018-09-10T02:21:15.748Z,3.62
2018-09-10T02:23:44.095Z,3.00
2018-09-10T02:26:12.305Z,2.87
2018-09-10T02:28:40.646Z,4.62
2018-09-10T02:31:08.952Z,5.53
2018-09-10T02:33:37.283Z,2.90
2018-09-10T02:36:05.812Z,2.75
2018-09-10T02:38:34.214Z,3.47
2018-09-10T02:41:02.543Z,3.87
2018-09-10T02:43:30.898Z,2.50
2018-09-10T02:45:59.196Z,4.15
2018-09-10T02:48:27.449Z,5.72
2018-09-10T02:50:55.730Z,3.98
2018-09-10T02:53:23.989Z,5.42
2018-09-10T02:55:52.258Z,3.62
2018-09-10T02:58:20.532Z,4.83
2018-09-10T03:00:48.817Z,3.10
2018-09-10T03:03:17.021Z,6.12
2018-09-10T03:05:45.398Z,4.55
2018-09-10T03:08:13.670Z,6.53
2018-09-10T03:10:42.298Z,6.67
2018-09-10T03:13:10.547Z,5.35
2018-09-10T03:15:38.824Z,6.55
2018-09-10T03:18:06.840Z,5.05
2018-09-10T03:20:35.001Z,5.28
2018-09-10T03:23:03.329Z,5.47
2018-09-10T03:25:31.551Z,3.55
2018-09-10T03:27:59.796Z,7.67
2018-09-10T03:30:28.091Z,4.90
2018-09-10T03:32:56.321Z,5.53
2018-09-10T03:35:24.958Z,6.95
2018-09-10T03:37:53.251Z,7.95
2018-09-10T03:40:21.515Z,3.77
2018-09-10T03:42:49.840Z,6.50
2018-09-10T03:45:18.108Z,7.58
2018-09-10T03:47:46.396Z,5.80
2018-09-10T03:50:14.681Z,4.20
2018-09-10T03:52:42.893Z,4.95
2018-09-10T03:55:11.284Z,8.20
2018-09-10T03:57:39.535Z,6.03
2018-09-10T04:00:08.066Z,4.17
2018-09-10T04:02:36.347Z,8.58
2018-09-10T04:05:04.592Z,6.37
2018-09-10T04:07:32.856Z,6.28
2018-09-10T04:10:01.137Z,4.87
2018-09-10T04:12:29.402Z,6.53
2018-09-10T04:14:57.647Z,5.87
2018-09-10T04:17:26.003Z,9.33
2018-09-10T04:19:59.688Z,8.30
2018-09-10T04:22:27.951Z,16.73
2018-09-10T04:24:56.219Z,9.10
2018-09-10T04:27:24.532Z,5.62
2018-09-10T04:29:52.842Z,6.87
2018-09-10T04:32:21.142Z,7.22
2018-09-10T04:34:49.470Z,6.35
2018-09-10T04:37:17.757Z,9.70
2018-09-10T04:39:46.036Z,6.47
2018-09-10T04:42:14.441Z,9.20
2018-09-10T04:44:42.702Z,6.78
2018-09-10T04:47:11.008Z,8.35
2018-09-10T04:49:39.364Z,8.25
2018-09-10T04:52:07.639Z,14.38
2018-09-10T04:54:35.893Z,8.55
2018-09-10T04:57:04.171Z,13.22
2018-09-10T04:59:32.459Z,8.50
2018-09-10T05:02:00.707Z,9.73
2018-09-10T05:04:29.041Z,6.03
2018-09-10T05:06:57.335Z,11.70
2018-09-10T05:09:25.641Z,8.78
2018-09-10T05:11:53.907Z,9.55
2018-09-10T05:14:22.178Z,10.63
2018-09-10T05:16:50.458Z,9.40
2018-09-10T05:19:18.766Z,12.50
2018-09-10T05:21:47.064Z,11.03
2018-09-10T05:24:15.372Z,11.30
2018-09-10T05:26:43.674Z,7.33
2018-09-10T05:29:12.565Z,7.08
2018-09-10T05:31:40.868Z,13.60
2018-09-10T05:34:09.189Z,11.22
2018-09-10T05:36:37.478Z,19.50
2018-09-10T05:39:07.016Z,14.13
2018-09-10T05:41:35.347Z,11.73
2018-09-10T05:44:03.626Z,14.20
2018-09-10T05:46:31.879Z,11.48
2018-09-10T05:49:00.148Z,12.35
2018-09-10T05:51:28.401Z,14.47
2018-09-10T05:53:56.690Z,7.90
2018-09-10T05:56:24.976Z,13.68
2018-09-10T05:58:53.523Z,11.33
2018-09-10T06:01:21.851Z,13.28
2018-09-10T06:03:50.177Z,8.40
2018-09-10T06:06:18.495Z,12.63
2018-09-10T06:08:46.822Z,9.65
2018-09-10T06:11:15.088Z,7.85
2018-09-10T06:13:43.409Z,12.70
2018-09-10T06:16:11.714Z,7.97
2018-09-10T06:18:39.952Z,12.07
2018-09-10T06:21:08.248Z,16.65
2018-09-10T06:23:36.537Z,10.00
2018-09-10T06:26:04.804Z,13.68
2018-09-10T06:28:33.047Z,20.62
2018-09-10T06:31:01.347Z,11.00
2018-09-10T06:33:29.601Z,11.80
2018-09-10T06:35:57.845Z,13.58
2018-09-10T06:38:26.150Z,14.55
2018-09-10T06:40:54.453Z,17.90
2018-09-10T06:43:22.770Z,17.02
2018-09-10T06:45:51.298Z,14.73
2018-09-10T06:48:19.656Z,12.37
2018-09-10T06:50:47.950Z,14.47
2018-09-10T06:53:16.282Z,12.18
2018-09-10T06:55:44.529Z,17.32
2018-09-10T06:58:12.771Z,16.73
2018-09-10T07:00:41.360Z,18.30
2018-09-10T07:03:09.645Z,17.25
2018-09-10T07:05:37.933Z,14.07
2018-09-10T07:08:06.278Z,15.43
2018-09-10T07:10:34.532Z,16.45
2018-09-10T07:13:02.793Z,11.30
2018-09-10T07:15:31.012Z,18.77
2018-09-10T07:17:59.256Z,14.78
2018-09-10T07:20:27.480Z,13.00
2018-09-10T07:22:55.833Z,13.93
2018-09-10T07:25:24.106Z,17.02
2018-09-10T07:27:52.352Z,13.78
2018-09-10T07:30:20.713Z,17.02
2018-09-10T07:32:48.953Z,16.60
2018-09-10T07:35:17.221Z,16.85
2018-09-10T07:37:45.430Z,20.30
2018-09-10T07:40:13.700Z,13.28
2018-09-10T07:42:41.965Z,15.20
2018-09-10T07:45:10.210Z,16.00
2018-09-10T07:47:38.462Z,16.12
2018-09-10T07:50:06.728Z,11.85
2018-09-10T07:52:35.005Z,14.10
2018-09-10T07:55:03.249Z,15.18
2018-09-10T07:57:31.526Z,18.20
2018-09-10T08:00:00.161Z,16.85
2018-09-10T08:02:28.482Z,12.68
2018-09-10T08:04:56.706Z,17.35
2018-09-10T08:07:24.950Z,22.37
2018-09-10T08:09:53.469Z,17.12
2018-09-10T08:12:21.721Z,22.05
2018-09-10T08:14:49.987Z,18.27
2018-09-10T08:17:18.232Z,16.15
2018-09-10T08:19:46.465Z,18.35
2018-09-10T08:22:14.708Z,24.95
2018-09-10T08:24:42.961Z,20.30
2018-09-10T08:27:11.229Z,19.25
2018-09-10T08:29:39.543Z,23.30
2018-09-10T08:32:07.853Z,23.40
2018-09-10T08:34:36.248Z,20.60
2018-09-10T08:37:05.032Z,21.65
2018-09-10T08:39:33.514Z,24.07
2018-09-10T08:42:01.883Z,18.25
2018-09-10T08:44:30.502Z,21.35
2018-09-10T08:46:58.971Z,18.42
2018-09-10T08:49:27.262Z,22.45
2018-09-10T08:51:55.539Z,27.55
2018-09-10T08:54:24.000Z,30.17
2018-09-10T08:56:52.149Z,19.87
2018-09-10T08:59:20.400Z,25.00
2018-09-10T09:01:48.700Z,23.57
2018-09-10T09:04:17.750Z,22.05
2018-09-10T09:06:46.012Z,20.05
2018-09-10T09:09:14.316Z,20.17
2018-09-10T09:11:42.709Z,27.20
2018-09-10T09:14:10.959Z,21.37
2018-09-10T09:16:39.214Z,19.67
2018-09-10T09:19:07.452Z,24.82
2018-09-10T09:21:35.744Z,20.40
2018-09-10T09:24:04.022Z,17.65
2018-09-10T09:26:32.281Z,18.60
2018-09-10T09:29:00.514Z,30.20
2018-09-10T09:31:28.767Z,19.27
2018-09-10T09:33:57.046Z,21.23
2018-09-10T09:36:30.616Z,22.15
2018-09-10T09:39:04.270Z,17.90
2018-09-10T09:41:37.731Z,21.70
2018-09-10T09:44:11.537Z,15.45
2018-09-10T09:46:39.761Z,18.77
2018-09-10T09:49:08.077Z,20.68
2018-09-10T09:51:36.325Z,21.60
2018-09-10T09:54:04.593Z,20.35
2018-09-10T09:56:32.851Z,16.30
2018-09-10T09:59:01.060Z,20.30
2018-09-10T10:01:34.803Z,19.45
2018-09-10T10:04:08.530Z,22.55
2018-09-10T10:06:37.024Z,12.90
2018-09-10T10:09:08.443Z,17.82
2018-09-10T10:11:36.739Z,15.83
2018-09-10T10:14:05.188Z,15.53
2018-09-10T10:16:33.447Z,19.67
2018-09-10T10:19:01.692Z,21.30
2018-09-10T10:21:29.943Z,15.98
2018-09-10T10:23:58.327Z,14.07
2018-09-10T10:26:26.668Z,17.23
2018-09-10T10:28:54.989Z,17.10
2018-09-10T10:31:23.576Z,15.20
2018-09-10T10:33:51.905Z,13.15
2018-09-10T10:36:20.156Z,16.55
2018-09-10T10:38:48.464Z,19.17
2018-09-10T10:41:16.707Z,23.15
2018-09-10T10:43:44.971Z,24.70
2018-09-10T10:46:13.247Z,16.87
2018-09-10T10:48:41.536Z,18.40
2018-09-10T10:51:09.792Z,14.95
2018-09-10T10:53:38.108Z,22.82
2018-09-10T10:56:06.338Z,19.55
2018-09-10T10:58:34.646Z,16.87
2018-09-10T11:01:02.942Z,17.20
2018-09-10T11:03:31.238Z,15.08
2018-09-10T11:05:59.544Z,16.12
2018-09-10T11:08:27.786Z,15.15
2018-09-10T11:10:56.079Z,13.83
2018-09-10T11:13:24.888Z,15.70
2018-09-10T11:15:53.177Z,14.68
2018-09-10T11:18:21.511Z,13.70
2018-09-10T11:20:49.798Z,17.23
2018-09-10T11:23:18.108Z,10.43
2018-09-10T11:25:46.367Z,15.35
2018-09-10T11:28:14.637Z,13.90
2018-09-10T11:30:42.905Z,12.73
2018-09-10T11:33:11.171Z,13.40
2018-09-10T11:35:39.443Z,19.30
2018-09-10T11:38:07.766Z,13.13
2018-09-10T11:40:36.097Z,12.10
2018-09-10T11:43:04.414Z,14.78
2018-09-10T11:45:32.658Z,15.23
2018-09-10T11:48:00.889Z,20.15
2018-09-10T11:50:29.196Z,16.93
2018-09-10T11:52:57.515Z,13.78
2018-09-10T11:55:25.806Z,12.55
2018-09-10T11:57:54.019Z,8.65
2018-09-10T12:00:22.342Z,10.03
2018-09-10T12:02:50.580Z,18.65
2018-09-10T12:05:18.882Z,10.45
2018-09-10T12:07:47.126Z,10.68
2018-09-10T12:10:15.439Z,13.00
2018-09-10T12:12:43.776Z,14.07
2018-09-10T12:15:12.083Z,17.48
2018-09-10T12:17:40.449Z,14.13
2018-09-10T12:20:08.701Z,14.10
2018-09-10T12:22:37.027Z,18.77
2018-09-10T12:25:05.297Z,11.85
2018-09-10T12:27:33.565Z,12.25
2018-09-10T12:30:01.852Z,8.98
2018-09-10T12:32:30.226Z,13.05
2018-09-10T12:34:58.427Z,21.33
2018-09-10T12:37:26.684Z,16.95
2018-09-10T12:39:54.961Z,11.57
2018-09-10T12:42:23.244Z,11.40
2018-09-10T12:44:51.535Z,14.13
2018-09-10T12:47:19.848Z,11.70
2018-09-10T12:49:48.213Z,9.85
2018-09-10T12:52:16.526Z,9.90
2018-09-10T12:54:44.826Z,12.35
2018-09-10T12:57:13.320Z,10.32
2018-09-10T12:59:41.598Z,10.10
2018-09-10T13:02:09.814Z,16.48
2018-09-10T13:04:38.072Z,10.63
2018-09-10T13:07:06.439Z,17.23
2018-09-10T13:09:34.718Z,10.78
2018-09-10T13:12:02.995Z,8.93
2018-09-10T13:14:31.448Z,15.93
2018-09-10T13:16:59.697Z,12.20
2018-09-10T13:19:28.107Z,8.08
2018-09-10T13:21:56.376Z,14.28
2018-09-10T13:24:24.698Z,12.18
2018-09-10T13:26:53.052Z,11.63
2018-09-10T13:29:21.392Z,11.22
2018-09-10T13:31:49.724Z,11.03
2018-09-10T13:34:18.004Z,15.28
2018-09-10T13:36:46.376Z,14.55
2018-09-10T13:39:14.584Z,10.20
2018-09-10T13:41:42.848Z,12.40
2018-09-10T13:44:11.157Z,12.05
2018-09-10T13:46:39.435Z,7.85
2018-09-10T13:49:07.699Z,6.53
2018-09-10T13:51:36.004Z,3.65
2018-09-10T13:54:04.357Z,6.95
2018-09-10T13:56:32.573Z,7.60
2018-09-10T13:59:00.828Z,5.00
2018-09-10T14:01:29.138Z,6.28
2018-09-10T14:03:57.531Z,5.97
2018-09-10T14:06:27.692Z,4.62
2018-09-10T14:08:56.127Z,7.72
2018-09-10T14:11:24.422Z,7.08
2018-09-10T14:13:52.710Z,7.55
2018-09-10T14:16:20.953Z,9.28
2018-09-10T14:18:49.216Z,7.62
2018-09-10T14:21:17.491Z,6.33
2018-09-10T14:23:45.794Z,8.18
2018-09-10T14:26:14.074Z,6.28
2018-09-10T14:28:42.324Z,3.80
2018-09-10T14:31:10.584Z,6.20
2018-09-10T14:33:38.826Z,9.38
2018-09-10T14:36:07.831Z,4.83
2018-09-10T14:38:36.178Z,8.60
2018-09-10T14:41:04.526Z,6.50
2018-09-10T14:43:32.834Z,5.53
2018-09-10T14:46:01.086Z,7.40
2018-09-10T14:48:29.324Z,6.87
2018-09-10T14:50:57.633Z,4.00
2018-09-10T14:53:25.959Z,4.62
2018-09-10T14:55:54.288Z,6.80
2018-09-10T14:58:22.677Z,7.45
2018-09-10T15:00:51.311Z,5.92
2018-09-10T15:03:19.543Z,6.37
2018-09-10T15:05:47.838Z,5.15
2018-09-10T15:08:16.096Z,7.70
2018-09-10T15:10:44.378Z,10.18
2018-09-10T15:13:12.683Z,11.68
2018-09-10T15:15:40.985Z,15.38
2018-09-10T15:18:09.354Z,23.18
2018-09-10T15:20:37.765Z,8.18
2018-09-10T15:23:06.142Z,11.90
2018-09-10T15:25:34.472Z,12.00
2018-09-10T15:28:02.713Z,15.75
2018-09-10T15:30:30.975Z,40.40
2018-09-10T15:32:59.238Z,10.65
2018-09-10T15:35:27.513Z,10.38
2018-09-10T15:37:55.810Z,7.03
2018-09-10T15:40:24.055Z,8.50
2018-09-10T15:42:52.338Z,10.60
2018-09-10T15:45:20.693Z,10.20
2018-09-10T15:47:48.900Z,3.95
2018-09-10T15:50:17.215Z,4.58
2018-09-10T15:52:45.548Z,11.00
2018-09-10T15:55:13.812Z,7.95
2018-09-10T15:57:42.131Z,11.83
2018-09-10T16:00:10.477Z,19.07
2018-09-10T16:02:38.688Z,5.55
2018-09-10T16:05:07.023Z,9.23
2018-09-10T16:07:35.309Z,6.75
2018-09-10T16:10:03.584Z,8.35
2018-09-10T16:12:31.843Z,10.20
2018-09-10T16:15:00.149Z,9.90
2018-09-10T16:17:28.432Z,12.90
2018-09-10T16:19:56.702Z,12.05
2018-09-10T16:22:25.011Z,8.50
2018-09-10T16:24:53.275Z,4.25
2018-09-10T16:27:21.566Z,5.65
2018-09-10T16:29:50.873Z,7.37
2018-09-10T16:32:19.119Z,6.25
2018-09-10T16:34:47.375Z,5.20
2018-09-10T16:37:15.633Z,10.60
2018-09-10T16:39:43.963Z,5.20
2018-09-10T16:42:12.278Z,6.42
2018-09-10T16:44:40.735Z,6.60
2018-09-10T16:47:09.013Z,9.98
2018-09-10T16:49:37.304Z,7.42
2018-09-10T16:52:05.597Z,9.80
2018-09-10T16:54:33.925Z,8.23
2018-09-10T16:57:02.116Z,4.20
2018-09-10T16:59:30.474Z,7.40
2018-09-10T17:01:58.784Z,9.80
2018-09-10T17:04:27.140Z,9.25
2018-09-10T17:06:56.195Z,5.67
2018-09-10T17:09:24.494Z,11.60
2018-09-10T17:11:52.951Z,5.60
2018-09-10T17:14:21.222Z,5.42
2018-09-10T17:16:49.471Z,8.45
2018-09-10T17:19:17.798Z,6.25
2018-09-10T17:21:46.083Z,6.35
2018-09-10T17:24:14.354Z,9.73
2018-09-10T17:26:42.728Z,7.70
2018-09-10T17:29:11.029Z,4.87
2018-09-10T17:31:39.571Z,5.05
2018-09-10T17:34:07.902Z,5.42
2018-09-10T17:36:36.280Z,6.50
2018-09-10T17:39:06.928Z,6.50
2018-09-10T17:41:35.208Z,5.42
2018-09-10T17:44:03.525Z,7.97
2018-09-10T17:46:31.881Z,13.08
2018-09-10T17:49:00.156Z,6.30
2018-09-10T17:51:28.377Z,8.05
2018-09-10T17:53:56.718Z,10.20
2018-09-10T17:56:24.990Z,8.85
2018-09-10T17:58:53.318Z,6.47
2018-09-10T18:01:21.573Z,8.90
2018-09-10T18:03:49.868Z,5.47
2018-09-10T18:06:18.148Z,4.78
2018-09-10T18:08:46.424Z,5.97
2018-09-10T18:11:14.711Z,8.83
2018-09-10T18:13:43.010Z,12.23
2018-09-10T18:16:11.344Z,11.20
2018-09-10T18:18:39.640Z,5.28
2018-09-10T18:21:08.936Z,7.97
2018-09-10T18:23:37.261Z,8.68
2018-09-10T18:26:05.575Z,9.83
2018-09-10T18:28:33.838Z,5.45
2018-09-10T18:31:02.068Z,5.75
2018-09-10T18:33:30.321Z,7.15
2018-09-10T18:35:58.593Z,10.03
2018-09-10T18:38:26.853Z,9.10
2018-09-10T18:40:55.109Z,7.22
2018-09-10T18:43:23.424Z,7.45
2018-09-10T18:45:51.659Z,6.40
2018-09-10T18:48:19.925Z,10.78
2018-09-10T18:50:48.243Z,9.80
2018-09-10T18:53:16.520Z,5.50
2018-09-10T18:55:44.913Z,8.78
2018-09-10T18:58:13.238Z,6.25
2018-09-10T19:00:41.596Z,6.60
2018-09-10T19:03:09.804Z,9.08
2018-09-10T19:05:38.090Z,10.55
2018-09-10T19:08:06.360Z,7.72
2018-09-10T19:10:34.820Z,9.58
2018-09-10T19:13:03.114Z,7.62
2018-09-10T19:15:31.424Z,6.58
2018-09-10T19:17:59.728Z,9.08
2018-09-10T19:20:28.112Z,7.22
2018-09-10T19:22:56.393Z,10.95
2018-09-10T19:25:24.722Z,10.30
2018-09-10T19:27:53.029Z,9.00
2018-09-10T19:30:21.361Z,8.68
2018-09-10T19:32:49.914Z,8.13
2018-09-10T19:35:18.257Z,10.72
2018-09-10T19:37:46.530Z,8.30
2018-09-10T19:40:14.804Z,8.35
2018-09-10T19:42:43.047Z,6.72
2018-09-10T19:45:11.324Z,16.30
2018-09-10T19:47:39.561Z,8.10
2018-09-10T19:50:08.475Z,10.70
2018-09-10T19:52:36.746Z,17.67
2018-09-10T19:55:05.216Z,13.30
2018-09-10T19:57:33.442Z,10.95
2018-09-10T20:00:02.532Z,7.90
2018-09-10T20:02:30.853Z,7.62
2018-09-10T20:04:59.193Z,11.18
2018-09-10T20:07:27.460Z,13.65
2018-09-10T20:09:55.909Z,9.55
2018-09-10T20:12:24.169Z,10.00
2018-09-10T20:14:52.574Z,10.65
2018-09-10T20:17:20.838Z,8.68
2018-09-10T20:19:49.110Z,8.45
2018-09-10T20:22:18.174Z,11.57
2018-09-10T20:24:46.473Z,10.32
2018-09-10T20:27:15.383Z,11.40
2018-09-10T20:29:43.699Z,10.63
2018-09-10T20:32:11.928Z,10.75
2018-09-10T20:34:40.227Z,14.85
2018-09-10T20:37:08.498Z,11.57
2018-09-10T20:39:36.761Z,6.80
2018-09-10T20:42:05.659Z,9.45
2018-09-10T20:44:33.925Z,14.65
2018-09-10T20:47:02.196Z,9.65
2018-09-10T20:49:30.527Z,13.55
2018-09-10T20:51:58.740Z,11.50
2018-09-10T20:54:27.024Z,21.25
2018-09-10T20:56:55.320Z,16.02
2018-09-10T20:59:23.574Z,8.78
2018-09-10T21:01:51.871Z,10.43
2018-09-10T21:04:20.232Z,16.87
2018-09-10T21:06:48.485Z,10.72
2018-09-10T21:09:16.740Z,9.63
2018-09-10T21:11:45.068Z,11.20
2018-09-10T21:14:13.276Z,12.53
2018-09-10T21:16:41.569Z,14.33
2018-09-10T21:19:09.917Z,14.70
2018-09-10T21:21:38.282Z,14.83
2018-09-10T21:24:13.252Z,13.90
2018-09-10T21:26:41.880Z,12.98
2018-09-10T21:29:10.173Z,11.90
2018-09-10T21:31:38.484Z,12.30
2018-09-10T21:34:07.085Z,12.40
2018-09-10T21:36:35.354Z,12.23
2018-09-10T21:39:03.713Z,9.33
2018-09-10T21:41:31.951Z,18.57
2018-09-10T21:44:00.213Z,16.07
2018-09-10T21:46:28.589Z,14.35
2018-09-10T21:48:56.867Z,15.15
2018-09-10T21:51:25.178Z,14.07
2018-09-10T21:53:53.492Z,13.93
2018-09-10T21:56:21.762Z,14.07
2018-09-10T21:58:50.061Z,18.15
2018-09-10T22:01:18.328Z,12.50
2018-09-10T22:03:46.613Z,14.90
2018-09-10T22:06:14.934Z,13.72
2018-09-10T22:08:43.222Z,16.65
2018-09-10T22:11:11.511Z,21.45
2018-09-10T22:13:39.786Z,19.42
2018-09-10T22:16:08.084Z,12.50
2018-09-10T22:18:36.332Z,19.02
2018-09-10T22:21:04.867Z,16.17
2018-09-10T22:23:33.142Z,18.10
2018-09-10T22:26:01.458Z,17.48
2018-09-10T22:28:29.701Z,12.33
2018-09-10T22:30:57.958Z,14.10
2018-09-10T22:33:26.225Z,16.50
2018-09-10T22:35:54.487Z,16.62
2018-09-10T22:38:22.747Z,11.43
2018-09-10T22:40:51.105Z,12.25
2018-09-10T22:43:19.807Z,11.90
2018-09-10T22:45:48.082Z,13.38
2018-09-10T22:48:16.365Z,14.13
2018-09-10T22:50:44.620Z,18.50
2018-09-10T22:53:12.818Z,10.13
2018-09-10T22:55:41.134Z,13.00
2018-09-10T22:58:09.530Z,14.20
2018-09-10T23:00:37.780Z,15.70
2018-09-10T23:03:06.000Z,14.25
2018-09-10T23:05:34.267Z,13.38
2018-09-10T23:08:02.716Z,13.15
2018-09-10T23:10:31.005Z,13.95
2018-09-10T23:12:59.298Z,15.85
2018-09-10T23:15:28.809Z,13.38
2018-09-10T23:17:57.125Z,12.93
2018-09-10T23:20:25.391Z,14.13
2018-09-10T23:22:53.704Z,12.03
2018-09-10T23:25:22.079Z,15.23
2018-09-10T23:27:50.369Z,8.93
2018-09-10T23:30:18.660Z,13.00
2018-09-10T23:32:46.930Z,12.78
2018-09-10T23:35:15.195Z,12.85
2018-09-10T23:37:43.469Z,13.53
2018-09-10T23:40:11.738Z,12.03
2018-09-10T23:42:40.010Z,12.05
2018-09-10T23:45:08.238Z,12.35
2018-09-10T23:47:36.484Z,18.27
2018-09-10T23:50:05.196Z,7.78
2018-09-10T23:52:33.496Z,14.23
2018-09-10T23:55:01.849Z,10.78
2018-09-10T23:57:30.145Z,14.07
2018-09-10T23:59:59.407Z,14.90
